Aérodrome :
LOGIN :

S'inscrire | Disclaimer

   EN    FR    IT 

 










Légende :    VFR   VFR Marginal   IFR   IFR Intensif   IFR Très Intensif
Visi : 
Plafond : 
>= 8 km
>= 3000ft
5 à 8 km
1000 à 3000 ft
1500m à 5 km
500 à 1000 ft
800 à 1500m
200 à 500 ft
< 800m
< 200 ft
Symboles :   Orages  Brouillard  Fortes neiges  Fortes précipitations  Vent > 20 kt
SIGMETs :   Divers  Orages  Givrage  Turbulence  Onde Orograph.  Cendres Volcan.







- Altitude de l'aérodrome : 2945 ft
- Code IATA : RGS


LEBG - Burgos

DERNIER METAR :
  • 250530Z 17002KT CAVOK 12/09 Q1019

METARs EXPIRÉS :
  • 250500Z 04007KT CAVOK 11/10 Q1019
  • 250430Z AUTO 14003KT 080V200 9999 NCD 11/09 Q1019
  • 250400Z AUTO 18003KT 150V210 9999 NCD 11/08 Q1019
  • 250330Z AUTO 05005KT 9999 NCD 12/09 Q1019
  • 250300Z AUTO 04003KT 360V070 9999 NCD 12/10 Q1019

TAF TAF LEBG
Valide du 25 à 06h jusqu'au 25 à 15h UTC


250500Z 2506/2515 05008KT CAVOK
PROB40
TEMPO 2512/2515 FEW045TCU
Pas de NOTAMs connus pour ce terrain.
1 SIGMET publié pour la FIR Madrid (LECM) :
 
Orages noyés dans la masse
LECM SIGMET 2 VALID 250500/250700 LEVA
LECM MADRID FIR/UIR EMBD TS OBS AT 0501Z W OF LINE N4157 W00935 - N4501 W00935 TOP FL450 MOV NW 20KT NC=



MET'MAP, la Météo Aéronautique d'un coup d'oeil ! - Copyright ORBIFLY Décembre 2007 - Disclaimer

ORBIFLY MET'MAP TEAM :

Programmation & Développement : Alexandra Zaïnal
Conception & Développement : Baudouin d'Aumeries
Co-Programmation & Développement : Marc-Olivier Méhu
Soutien technique & logistique : Manuel Goepfert

Contact : metmap@orbifly.com




SOURCES & CREDITS :

   NOAA